Time;durP1;ratioP1;P1;durP2;ratioP2;P2;SDS_P1;SDS_P2;PMS_P1;PMS_P2;Temp;Humidity;BMP_temperature;BMP_pressure;BME280_temperature;BME280_humidity;BME280_pressure;Samples;Min_cycle;Max_cycle;Signal;HPM_P1;HPM_P2
2022/01/31 00:00:09;;;;;;;24.02;9.07;;;;;;;-4.70;100.00;97381.00;5046499;28;20500;-60
2022/01/31 00:02:40;;;;;;;22.65;7.93;;;;;;;-4.56;100.00;97387.06;4998505;28;20410;-60
2022/01/31 00:05:06;;;;;;;21.02;8.48;;;;;;;-4.56;100.00;97392.34;5031433;28;20083;-61
2022/01/31 00:07:32;;;;;;;20.35;7.93;;;;;;;-4.59;100.00;97380.22;5030383;28;20139;-61
2022/01/31 00:09:58;;;;;;;22.73;6.68;;;;;;;-4.61;100.00;97382.13;5013821;28;20444;-63
2022/01/31 00:12:28;;;;;;;22.83;8.25;;;;;;;-4.56;100.00;97384.44;4997138;28;20049;-59
2022/01/31 00:15:00;;;;;;;19.25;7.95;;;;;;;-4.58;100.00;97371.34;4997684;28;20042;-62
2022/01/31 00:17:26;;;;;;;18.55;7.32;;;;;;;-4.59;100.00;97382.84;5029322;28;20103;-60
2022/01/31 00:19:52;;;;;;;23.52;7.25;;;;;;;-4.57;100.00;97374.81;4997131;28;20045;-62
2022/01/31 00:22:18;;;;;;;22.13;7.65;;;;;;;-4.50;100.00;97370.78;5029925;28;20045;-60
2022/01/31 00:24:43;;;;;;;25.42;8.98;;;;;;;-4.59;100.00;97366.19;5029746;28;20053;-61
2022/01/31 00:27:09;;;;;;;23.85;9.52;;;;;;;-4.58;100.00;97378.41;5012548;28;20188;-60
2022/01/31 00:29:36;;;;;;;20.85;8.80;;;;;;;-4.56;100.00;97371.25;5013193;28;20045;-60
2022/01/31 00:32:03;;;;;;;19.45;7.93;;;;;;;-4.56;100.00;97365.97;5029379;28;20049;-61
2022/01/31 00:34:29;;;;;;;22.05;8.38;;;;;;;-4.50;100.00;97373.41;5012741;28;20049;-62
2022/01/31 00:36:55;;;;;;;22.83;9.05;;;;;;;-4.46;100.00;97361.69;5012033;28;20081;-63
2022/01/31 00:39:21;;;;;;;16.63;6.68;;;;;;;-4.47;100.00;97365.28;5012602;28;20346;-62
2022/01/31 00:41:47;;;;;;;21.02;7.50;;;;;;;-4.47;100.00;97360.00;5046374;28;20064;-61
2022/01/31 00:44:18;;;;;;;21.77;8.93;;;;;;;-4.48;100.00;97367.09;5030938;28;20049;-61
2022/01/31 00:46:59;;;;;;;20.05;7.93;;;;;;;-4.45;100.00;97363.38;5029406;28;20056;-63
2022/01/31 00:51:58;;;;;;;19.80;6.90;;;;;;;-4.44;100.00;97360.63;5044840;28;20349;-63
2022/01/31 00:54:24;;;;;;;22.85;9.88;;;;;;;-4.48;100.00;97355.69;5028575;28;20088;-63
2022/01/31 00:56:51;;;;;;;27.23;10.40;;;;;;;-4.49;100.00;97357.50;5012511;28;20058;-61
2022/01/31 00:59:17;;;;;;;24.80;9.43;;;;;;;-4.50;100.00;97349.69;5045655;28;20405;-59
2022/01/31 01:01:44;;;;;;;23.35;9.07;;;;;;;-4.54;100.00;97353.50;5012330;28;20038;-60
2022/01/31 01:04:10;;;;;;;24.15;9.82;;;;;;;-4.73;100.00;97323.25;5029225;28;20053;-63
2022/01/31 01:06:36;;;;;;;15.32;6.45;;;;;;;-4.51;100.00;97337.47;5012447;28;20515;-60
2022/01/31 01:09:02;;;;;;;23.73;9.35;;;;;;;-4.49;100.00;97351.38;5028796;28;20050;-62
2022/01/31 01:11:28;;;;;;;22.63;9.77;;;;;;;-4.51;100.00;97345.38;5028150;28;20046;-61
2022/01/31 01:13:54;;;;;;;25.08;9.48;;;;;;;-4.46;100.00;97356.41;4996218;28;20053;-60
2022/01/31 01:16:20;;;;;;;24.67;11.85;;;;;;;-4.50;100.00;97370.78;5045150;28;20056;-64
2022/01/31 01:18:46;;;;;;;26.73;10.93;;;;;;;-4.54;100.00;97345.59;5029155;28;20053;-61
2022/01/31 01:21:11;;;;;;;28.77;10.43;;;;;;;-4.57;100.00;97338.78;5012096;28;20088;-62
2022/01/31 01:23:37;;;;;;;27.95;9.65;;;;;;;-4.48;100.00;97348.63;5012387;28;20048;-61
2022/01/31 01:26:03;;;;;;;23.65;10.20;;;;;;;-4.49;100.00;97349.59;5029493;28;20420;-61
2022/01/31 01:28:30;;;;;;;20.10;8.00;;;;;;;-4.52;100.00;97348.97;5029160;28;20501;-62
2022/01/31 01:30:56;;;;;;;27.83;11.43;;;;;;;-4.50;100.00;97357.59;5029319;28;20117;-62
2022/01/31 01:33:24;;;;;;;25.05;9.77;;;;;;;-4.50;100.00;97353.16;5029454;28;20053;-61
2022/01/31 01:35:53;;;;;;;24.90;9.82;;;;;;;-4.44;100.00;97346.59;5029317;28;20057;-62
2022/01/31 01:38:27;;;;;;;31.95;11.43;;;;;;;-4.53;100.00;97349.91;5028969;28;20091;-63
2022/01/31 01:40:59;;;;;;;24.05;9.07;;;;;;;-4.44;100.00;97354.50;5000540;28;20063;-67
2022/01/31 01:43:26;;;;;;;26.83;10.15;;;;;;;-4.44;100.00;97349.25;5015892;28;20049;-61
2022/01/31 01:45:53;;;;;;;26.67;10.93;;;;;;;-4.48;100.00;97351.25;5016505;28;20053;-62
2022/01/31 01:48:20;;;;;;;28.63;9.48;;;;;;;-4.34;100.00;97360.78;5032866;28;20061;-63
2022/01/31 01:50:47;;;;;;;28.33;11.75;;;;;;;-4.39;100.00;97357.63;5032613;28;20531;-61
2022/01/31 01:53:13;;;;;;;30.15;11.65;;;;;;;-4.41;100.00;97364.84;5000092;28;20477;-63
2022/01/31 01:55:40;;;;;;;29.05;11.85;;;;;;;-4.39;100.00;97362.91;5016218;28;20041;-60
2022/01/31 01:58:14;;;;;;;24.60;9.35;;;;;;;-4.36;100.00;97357.41;5016315;28;20073;-61
2022/01/31 02:00:49;;;;;;;22.58;8.15;;;;;;;-4.36;100.00;97354.78;5015348;28;20056;-62
2022/01/31 02:03:20;;;;;;;30.75;9.90;;;;;;;-4.34;100.00;97355.50;5048049;28;20154;-62
2022/01/31 02:05:47;;;;;;;25.38;10.15;;;;;;;-4.30;100.00;97350.84;5015329;28;20060;-60
2022/01/31 02:08:14;;;;;;;27.58;8.98;;;;;;;-4.28;100.00;97354.19;5032059;28;20093;-60
2022/01/31 02:10:41;;;;;;;21.92;8.57;;;;;;;-4.27;100.00;97343.53;5015119;28;20053;-61
2022/01/31 02:13:16;;;;;;;30.38;11.35;;;;;;;-4.29;100.00;97342.81;5016027;28;20488;-61
2022/01/31 02:16:18;;;;;;;26.10;8.70;;;;;;;-4.26;100.00;97344.38;4982011;28;20046;-61
2022/01/31 02:18:54;;;;;;;24.58;7.85;;;;;;;-4.51;100.00;97295.28;5022765;28;20053;-62
2022/01/31 02:21:54;;;;;;;29.85;10.75;;;;;;;-4.26;100.00;97350.50;5013344;28;20053;-62
2022/01/31 02:24:55;;;;;;;30.73;12.13;;;;;;;-4.33;100.00;97340.53;4998780;28;20545;-62
2022/01/31 02:27:38;;;;;;;32.03;11.43;;;;;;;-4.32;100.00;97348.31;5013236;28;20454;-61
2022/01/31 02:30:08;;;;;;;28.95;9.93;;;;;;;-4.27;100.00;97351.44;5031252;28;20378;-64
2022/01/31 02:32:39;;;;;;;21.23;8.25;;;;;;;-4.31;100.00;97344.72;5015535;28;20053;-64
2022/01/31 02:35:06;;;;;;;30.50;11.18;;;;;;;-4.36;100.00;97341.59;4999049;28;20049;-62
2022/01/31 02:37:32;;;;;;;30.50;10.52;;;;;;;-4.31;100.00;97350.00;5016915;28;20046;-60
2022/01/31 02:40:16;;;;;;;23.60;9.43;;;;;;;-4.21;100.00;97350.97;5003969;28;20505;-62
2022/01/31 02:42:41;;;;;;;28.02;11.23;;;;;;;-4.29;100.00;97347.25;5031956;28;20052;-60
2022/01/31 02:45:08;;;;;;;21.90;7.75;;;;;;;-4.32;100.00;97339.56;4998082;28;20045;-63
2022/01/31 02:47:39;;;;;;;22.20;6.88;;;;;;;-4.25;100.00;97344.25;5014539;28;20068;-61
2022/01/31 02:50:08;;;;;;;27.02;10.25;;;;;;;-4.17;100.00;97357.72;5030955;28;20135;-63
2022/01/31 02:52:36;;;;;;;25.15;9.85;;;;;;;-4.28;100.00;97352.38;4997688;28;20515;-64
2022/01/31 02:55:06;;;;;;;31.60;11.60;;;;;;;-4.30;100.00;97356.13;5014131;28;20406;-61
2022/01/31 02:57:32;;;;;;;26.10;8.98;;;;;;;-4.41;100.00;97317.38;5013814;28;20070;-61
2022/01/31 02:59:58;;;;;;;21.88;7.85;;;;;;;-4.35;100.00;97322.19;4997888;28;20049;-62
2022/01/31 03:02:32;;;;;;;26.50;9.13;;;;;;;-4.21;100.00;97352.78;5015029;28;20045;-62
2022/01/31 03:04:58;;;;;;;29.60;10.57;;;;;;;-4.29;100.00;97353.34;5013768;28;20091;-60
2022/01/31 03:07:24;;;;;;;29.25;11.57;;;;;;;-4.29;100.00;97348.06;5030552;28;20207;-61
2022/01/31 03:09:50;;;;;;;32.60;11.57;;;;;;;-4.32;100.00;97348.31;5031864;28;20053;-62
2022/01/31 03:12:23;;;;;;;26.80;10.65;;;;;;;-4.29;100.00;97353.34;4999334;28;20398;-62
2022/01/31 03:14:58;;;;;;;26.42;9.73;;;;;;;-4.32;100.00;97343.03;5013746;28;20049;-63
2022/01/31 03:17:48;;;;;;;23.95;8.43;;;;;;;-4.23;100.00;97352.91;5029418;28;20152;-61
2022/01/31 03:20:16;;;;;;;32.60;12.63;;;;;;;-4.29;100.00;97353.34;4997992;28;20041;-66
2022/01/31 03:22:42;;;;;;;32.92;12.32;;;;;;;-4.40;100.00;97342.78;5013495;28;20048;-61
2022/01/31 03:25:08;;;;;;;27.20;9.50;;;;;;;-4.32;100.00;97350.09;5013368;28;20037;-62
2022/01/31 03:27:34;;;;;;;33.88;11.48;;;;;;;-4.20;100.00;97359.75;4996774;28;20184;-63
2022/01/31 03:30:00;;;;;;;31.92;12.20;;;;;;;-4.28;100.00;97357.66;5030393;28;20081;-62
2022/01/31 03:32:26;;;;;;;26.23;8.95;;;;;;;-4.26;100.00;97353.13;4997803;28;20100;-65
2022/01/31 03:34:52;;;;;;;30.02;10.73;;;;;;;-4.29;100.00;97358.63;5032154;28;20045;-62
2022/01/31 03:37:18;;;;;;;27.75;10.30;;;;;;;-4.35;100.00;97340.66;5015018;28;20072;-62
2022/01/31 03:39:44;;;;;;;29.20;9.45;;;;;;;-4.24;100.00;97345.94;5013356;28;20057;-63
2022/01/31 03:42:10;;;;;;;27.00;10.98;;;;;;;-4.35;100.00;97348.56;5013703;28;20084;-62
2022/01/31 03:44:36;;;;;;;27.88;12.63;;;;;;;-4.28;100.00;97360.31;4996698;28;20087;-62
2022/01/31 03:47:02;;;;;;;30.88;11.45;;;;;;;-4.26;100.00;97349.66;5013387;28;20077;-62
2022/01/31 03:49:28;;;;;;;24.50;9.20;;;;;;;-4.19;100.00;97349.06;5013043;28;20493;-63
2022/01/31 03:51:57;;;;;;;34.17;11.75;;;;;;;-4.21;100.00;97353.59;5045800;28;20049;-63
2022/01/31 03:54:36;;;;;;;23.80;9.65;;;;;;;-4.18;100.00;97358.66;5000388;28;20065;-62
2022/01/31 03:57:02;;;;;;;28.08;9.82;;;;;;;-4.13;100.00;97353.06;4996916;28;20515;-64
2022/01/31 03:59:38;;;;;;;34.25;10.50;;;;;;;-4.13;100.00;97348.63;4998036;28;20451;-61
2022/01/31 04:02:06;;;;;;;28.95;10.23;;;;;;;-4.28;100.00;97326.00;5028519;28;20046;-64
2022/01/31 04:04:35;;;;;;;31.95;10.90;;;;;;;-4.26;100.00;97339.94;5045643;28;20144;-62
2022/01/31 04:07:02;;;;;;;28.73;9.73;;;;;;;-4.18;100.00;97358.66;5045845;28;20053;-61
2022/01/31 04:09:28;;;;;;;19.38;7.35;;;;;;;-4.23;100.00;97347.63;5045847;28;20045;-61
2022/01/31 04:11:54;;;;;;;25.40;9.27;;;;;;;-4.19;100.00;97346.44;5008466;28;20492;-62
2022/01/31 04:14:20;;;;;;;27.30;10.50;;;;;;;-4.56;100.00;97277.19;5009723;28;20091;-63
2022/01/31 04:16:45;;;;;;;24.58;8.90;;;;;;;-4.15;100.00;97332.03;5009540;28;20052;-65
2022/01/31 04:19:11;;;;;;;23.92;8.07;;;;;;;-4.17;100.00;97341.91;5009582;28;20167;-65
2022/01/31 04:21:37;;;;;;;28.10;11.38;;;;;;;-4.13;100.00;97338.06;5009341;28;20430;-63
2022/01/31 04:24:03;;;;;;;25.52;9.35;;;;;;;-4.14;100.00;97331.09;4992718;28;20103;-64
2022/01/31 04:26:33;;;;;;;29.40;10.25;;;;;;;-4.16;100.00;97326.91;5009513;28;20049;-64
2022/01/31 04:29:08;;;;;;;28.02;11.52;;;;;;;-4.24;100.00;97324.84;5024892;28;20099;-64
2022/01/31 04:31:49;;;;;;;26.52;9.60;;;;;;;-4.17;100.00;97326.06;5009154;28;20053;-64
2022/01/31 04:34:15;;;;;;;26.20;8.95;;;;;;;-4.11;100.00;97337.94;5023705;28;20061;-62
2022/01/31 04:36:40;;;;;;;30.90;11.25;;;;;;;-4.16;100.00;97322.47;5009180;28;20374;-63
2022/01/31 04:39:06;;;;;;;27.42;9.05;;;;;;;-4.25;100.00;97314.41;5008916;28;20509;-63
2022/01/31 04:41:33;;;;;;;33.22;10.10;;;;;;;-4.07;100.00;97333.25;5009015;28;20042;-63
2022/01/31 04:44:04;;;;;;;23.13;8.30;;;;;;;-4.13;100.00;97338.06;5009050;28;20125;-63
2022/01/31 04:46:30;;;;;;;28.25;9.48;;;;;;;-4.21;100.00;97334.31;5008927;28;20049;-61
2022/01/31 04:48:56;;;;;;;25.90;8.70;;;;;;;-4.13;100.00;97332.78;5008712;28;20042;-61
2022/01/31 04:51:21;;;;;;;25.27;8.50;;;;;;;-4.07;100.00;97341.19;5008499;28;20498;-64
2022/01/31 04:53:47;;;;;;;28.23;9.05;;;;;;;-4.06;100.00;97337.56;5024399;28;20112;-62
2022/01/31 04:56:13;;;;;;;22.92;8.80;;;;;;;-4.09;100.00;97324.63;5008329;28;20041;-64
2022/01/31 04:58:40;;;;;;;28.55;10.77;;;;;;;-4.13;100.00;97343.34;5015165;28;20045;-63
2022/01/31 05:01:05;;;;;;;29.88;11.88;;;;;;;-4.14;100.00;97346.91;4995909;28;20037;-62
2022/01/31 05:03:31;;;;;;;28.67;10.02;;;;;;;-4.17;100.00;97331.34;5012406;28;20199;-62
2022/01/31 05:05:57;;;;;;;27.52;10.23;;;;;;;-4.04;100.00;97343.59;5012100;28;20048;-63
2022/01/31 05:08:26;;;;;;;25.25;9.70;;;;;;;-4.11;100.00;97345.84;4995769;28;20049;-63
2022/01/31 05:10:52;;;;;;;29.25;11.65;;;;;;;-4.09;100.00;97333.41;5011829;28;20037;-63
2022/01/31 05:13:18;;;;;;;25.02;10.10;;;;;;;-4.05;100.00;97334.00;5029007;28;20063;-62
2022/01/31 05:15:45;;;;;;;26.25;9.38;;;;;;;-3.99;100.00;97347.53;5015807;28;20413;-63
2022/01/31 05:18:12;;;;;;;29.42;9.73;;;;;;;-4.04;100.00;97346.22;5065472;28;20045;-64
2022/01/31 05:20:38;;;;;;;28.92;10.15;;;;;;;-3.99;100.00;97346.69;5032488;28;20462;-63
2022/01/31 05:23:06;;;;;;;24.52;8.30;;;;;;;-4.07;100.00;97341.19;5015707;28;20049;-64
2022/01/31 05:25:32;;;;;;;23.42;8.77;;;;;;;-4.01;100.00;97340.72;5015418;28;20056;-63
2022/01/31 05:27:58;;;;;;;27.27;9.13;;;;;;;-3.92;100.00;97348.75;5029969;28;20081;-56
2022/01/31 05:30:23;;;;;;;27.27;9.98;;;;;;;-3.93;100.00;97357.63;5011388;28;20118;-65
2022/01/31 05:32:51;;;;;;;25.48;9.50;;;;;;;-3.90;100.00;97359.19;5013260;28;20063;-65
2022/01/31 05:35:17;;;;;;;29.05;10.43;;;;;;;-3.97;100.00;97364.09;5029285;28;20041;-66
2022/01/31 05:37:42;;;;;;;22.33;8.05;;;;;;;-3.95;100.00;97372.75;5013497;28;20086;-65
2022/01/31 05:40:09;;;;;;;28.38;10.80;;;;;;;-4.03;100.00;97369.00;5029084;28;20080;-65
2022/01/31 05:42:35;;;;;;;27.48;9.93;;;;;;;-3.94;100.00;97361.22;5030660;28;20496;-71
2022/01/31 05:45:01;;;;;;;35.83;12.23;;;;;;;-3.94;100.00;97363.03;5027370;28;20033;-64
2022/01/31 05:47:28;;;;;;;29.38;10.23;;;;;;;-3.84;100.00;97353.44;5004256;28;20084;-71
2022/01/31 05:49:54;;;;;;;21.30;7.20;;;;;;;-3.85;100.00;97356.19;5013780;28;20449;-65
2022/01/31 05:52:20;;;;;;;35.25;14.45;;;;;;;-3.92;100.00;97353.19;4991010;28;20045;-64
2022/01/31 05:54:46;;;;;;;39.15;12.25;;;;;;;-3.96;100.00;97354.38;5028430;28;20136;-65
2022/01/31 05:57:12;;;;;;;33.40;11.02;;;;;;;-3.90;100.00;97348.66;5013696;28;20045;-64
2022/01/31 05:59:39;;;;;;;36.13;12.13;;;;;;;-3.99;100.00;97333.50;5004961;28;20121;-64
2022/01/31 06:02:05;;;;;;;36.03;12.13;;;;;;;-4.07;100.00;97309.53;5028545;28;20095;-64
2022/01/31 06:04:31;;;;;;;27.65;9.95;;;;;;;-3.74;100.00;97359.69;4997824;28;20438;-64
2022/01/31 06:06:58;;;;;;;37.72;13.73;;;;;;;-3.79;100.00;97359.22;5013800;28;20048;-64
2022/01/31 06:09:26;;;;;;;33.35;12.32;;;;;;;-3.72;100.00;97363.06;5021352;28;20346;-65
2022/01/31 06:11:52;;;;;;;32.63;11.00;;;;;;;-3.65;100.00;97363.44;4986960;28;20054;-64
2022/01/31 06:14:19;;;;;;;33.22;11.30;;;;;;;-3.58;100.00;97355.84;4996312;28;20133;-65
2022/01/31 06:16:44;;;;;;;31.38;11.15;;;;;;;-3.56;100.00;97356.56;4962021;28;20192;-64
2022/01/31 06:19:10;;;;;;;34.97;11.60;;;;;;;-3.55;100.00;97352.97;4994383;28;20151;-64
2022/01/31 06:21:36;;;;;;;33.20;12.98;;;;;;;-3.63;100.00;97351.75;5002243;28;20050;-64
2022/01/31 06:24:04;;;;;;;35.45;10.95;;;;;;;-3.51;100.00;97364.97;5029340;28;20370;-63
2022/01/31 06:26:30;;;;;;;43.95;16.85;;;;;;;-3.66;100.00;97359.94;5023204;28;20106;-65
2022/01/31 06:29:07;;;;;;;34.20;12.90;;;;;;;-3.66;100.00;97346.75;4999151;28;20093;-64
2022/01/31 06:31:41;;;;;;;23.88;8.55;;;;;;;-3.57;100.00;97344.34;4982489;28;20420;-65
2022/01/31 06:34:06;;;;;;;30.10;11.68;;;;;;;-3.53;100.00;97345.78;5010653;28;20517;-64
2022/01/31 06:36:33;;;;;;;31.98;11.52;;;;;;;-3.49;100.00;97331.38;5025481;28;20050;-64
2022/01/31 06:38:59;;;;;;;43.83;13.73;;;;;;;-3.45;100.00;97332.81;5027008;28;20075;-64
2022/01/31 06:41:25;;;;;;;22.02;7.90;;;;;;;-3.45;100.00;97327.53;5009814;28;20047;-64
2022/01/31 06:43:51;;;;;;;43.97;11.95;;;;;;;-3.41;100.00;97329.78;5011650;28;20045;-65
2022/01/31 06:46:17;;;;;;;46.75;13.88;;;;;;;-3.32;100.00;97338.81;5052728;28;20061;-65
2022/01/31 06:48:43;;;;;;;49.83;16.52;;;;;;;-3.44;100.00;97339.75;5010463;28;20056;-64
2022/01/31 06:51:09;;;;;;;41.28;15.02;;;;;;;-3.32;100.00;97338.81;5008590;28;20480;-64
2022/01/31 06:53:35;;;;;;;33.20;11.98;;;;;;;-3.42;100.00;97348.41;4993724;28;20072;-64
2022/01/31 06:56:01;;;;;;;50.40;17.02;;;;;;;-3.47;100.00;97329.47;4996433;28;20145;-65
2022/01/31 06:58:27;;;;;;;36.20;12.57;;;;;;;-3.35;100.00;97333.75;4993564;28;20050;-64
2022/01/31 07:00:54;;;;;;;35.15;12.65;;;;;;;-3.26;100.00;97327.72;5025946;28;20057;-65
2022/01/31 07:03:21;;;;;;;40.42;13.23;;;;;;;-3.18;100.00;97335.91;4991186;28;20458;-66
2022/01/31 07:05:47;;;;;;;40.75;13.90;;;;;;;-3.13;100.00;97326.78;5016718;28;20107;-64
2022/01/31 07:08:14;;;;;;;45.25;12.68;;;;;;;-3.06;100.00;97328.78;5020368;28;20473;-65
2022/01/31 07:10:41;;;;;;;34.17;11.10;;;;;;;-2.95;100.00;97341.13;5002882;28;20093;-65
2022/01/31 07:13:24;;;;;;;39.53;13.65;;;;;;;-2.90;100.00;97344.25;5011919;28;20088;-64
2022/01/31 07:15:50;;;;;;;46.65;16.83;;;;;;;-3.05;100.00;97348.13;5011794;28;20041;-64
2022/01/31 07:18:16;;;;;;;43.38;14.10;;;;;;;-2.87;100.00;97333.41;5001155;28;20642;-65
2022/01/31 07:20:46;;;;;;;24.13;7.07;;;;;;;-2.81;100.00;97332.09;4996019;28;20041;-65
2022/01/31 07:23:25;;;;;;;33.33;11.57;;;;;;;-2.77;100.00;97331.72;5012340;28;20347;-65
2022/01/31 07:25:51;;;;;;;46.75;14.40;;;;;;;-2.97;100.00;97317.47;5009847;28;20045;-65
2022/01/31 07:28:17;;;;;;;39.30;11.68;;;;;;;-2.84;100.00;97337.63;5011201;28;20129;-64
2022/01/31 07:30:48;;;;;;;41.80;15.20;;;;;;;-3.11;100.00;97298.41;4996756;28;20041;-65
2022/01/31 07:33:14;;;;;;;;;;;;;;;-2.84;100.00;97333.19;5009870;28;20072;-65
2022/01/31 07:35:45;;;;;;;44.30;14.27;;;;;;;-2.73;100.00;97334.94;5027344;28;19963;-66
2022/01/31 07:38:11;;;;;;;38.90;12.63;;;;;;;-2.76;100.00;97336.03;5011402;28;20100;-65
2022/01/31 07:40:38;;;;;;;52.58;15.05;;;;;;;-2.78;100.00;97340.63;5004053;28;20045;-65
2022/01/31 07:43:04;;;;;;;46.42;15.52;;;;;;;-2.70;100.00;97332.88;5013630;28;20100;-65
2022/01/31 07:45:30;;;;;;;28.75;8.75;;;;;;;-2.63;100.00;97324.44;5031193;28;20408;-65
2022/01/31 07:47:56;;;;;;;45.20;14.77;;;;;;;-2.69;100.00;97331.91;5022906;28;20397;-64
2022/01/31 07:50:22;;;;;;;34.58;11.27;;;;;;;-2.67;100.00;97319.41;5009912;28;20572;-65
2022/01/31 07:52:48;;;;;;;35.10;11.30;;;;;;;-2.69;100.00;97321.34;5024179;28;20045;-65
2022/01/31 07:55:13;;;;;;;44.80;17.25;;;;;;;-2.75;100.00;97339.50;5022801;28;20102;-65
2022/01/31 07:57:45;;;;;;;42.53;13.98;;;;;;;-2.72;100.00;97337.44;5016617;28;20076;-65
2022/01/31 08:00:12;;;;;;;38.97;11.77;;;;;;;-2.53;100.00;97343.88;5011715;28;20095;-65
2022/01/31 08:02:39;;;;;;;31.25;10.95;;;;;;;-2.52;100.00;97332.34;5009159;28;20057;-65
2022/01/31 08:05:07;;;;;;;29.85;10.63;;;;;;;-2.58;100.00;97316.97;5013506;28;20053;-65
2022/01/31 08:07:36;;;;;;;38.50;12.98;;;;;;;-2.44;100.00;97338.66;4992783;28;20059;-65
2022/01/31 08:10:04;;;;;;;46.70;16.58;;;;;;;-2.58;100.00;97348.72;5025052;28;20041;-65
2022/01/31 08:12:32;;;;;;;40.00;13.00;;;;;;;-2.57;100.00;97356.50;5010506;28;20049;-65
2022/01/31 08:15:03;;;;;;;35.38;12.63;;;;;;;-2.52;100.00;97353.50;4995597;28;20045;-67
2022/01/31 08:17:30;;;;;;;42.20;14.77;;;;;;;-2.72;100.00;97350.66;4983382;28;20049;-65
2022/01/31 08:19:56;;;;;;;46.10;12.95;;;;;;;-2.80;100.00;97326.66;5010207;28;20131;-65
2022/01/31 08:22:22;;;;;;;36.38;12.18;;;;;;;-2.60;100.00;97340.06;4996581;28;20136;-65
2022/01/31 08:24:48;;;;;;;42.35;12.60;;;;;;;-2.63;100.00;97327.06;5008248;28;20103;-65
2022/01/31 08:27:13;;;;;;;46.28;14.50;;;;;;;-2.55;100.00;97349.31;4994224;28;20061;-65
2022/01/31 08:29:40;;;;;;;47.90;15.75;;;;;;;-2.50;100.00;97341.81;5008497;28;20068;-65
2022/01/31 08:32:14;;;;;;;54.30;16.05;;;;;;;-2.38;100.00;97339.94;5008094;28;20049;-68
2022/01/31 08:37:25;;;;;;;54.50;17.27;;;;;;;-2.40;100.00;97346.34;5021643;28;20037;-64
2022/01/31 08:39:51;;;;;;;53.47;19.90;;;;;;;-2.70;100.00;97345.28;5040889;28;20165;-64
2022/01/31 08:42:17;;;;;;;48.38;13.93;;;;;;;-2.57;100.00;97347.75;5016583;28;20076;-68
2022/01/31 08:44:43;;;;;;;55.33;18.73;;;;;;;-2.67;100.00;97353.78;5025599;28;20045;-65
2022/01/31 08:47:09;;;;;;;52.83;15.80;;;;;;;-2.70;100.00;97335.53;4994185;28;20107;-65
2022/01/31 08:49:36;;;;;;;54.80;16.77;;;;;;;-2.71;100.00;97339.13;5009014;28;20045;-65
2022/01/31 08:52:05;;;;;;;34.55;11.63;;;;;;;-2.71;100.00;97323.25;5019713;28;20493;-64
2022/01/31 08:54:31;;;;;;;44.85;17.23;;;;;;;-2.87;100.00;97325.50;5009285;28;20053;-65
2022/01/31 08:56:57;;;;;;;49.08;16.88;;;;;;;-2.81;100.00;97332.94;5009082;28;20555;-64
2022/01/31 08:59:25;;;;;;;55.75;18.33;;;;;;;-2.77;100.00;97328.22;4988916;28;20084;-63
2022/01/31 09:02:03;;;;;;;52.40;15.93;;;;;;;-2.81;100.00;97317.06;4987343;28;20050;-66
2022/01/31 09:04:35;;;;;;;48.60;14.32;;;;;;;-2.60;100.00;97329.47;5029175;28;20053;-69
2022/01/31 09:07:02;;;;;;;50.08;14.20;;;;;;;-2.60;100.00;97316.25;5021783;28;20144;-66
2022/01/31 09:09:30;;;;;;;49.58;15.45;;;;;;;-2.44;100.00;97319.31;4998909;28;20080;-64
2022/01/31 09:11:57;;;;;;;45.50;15.65;;;;;;;-2.35;100.00;97321.19;4991953;28;20054;-69
2022/01/31 09:14:24;;;;;;;48.58;14.93;;;;;;;-2.25;100.00;97321.25;5018220;28;20041;-67
2022/01/31 09:16:50;;;;;;;42.75;13.88;;;;;;;-2.15;100.00;97313.38;4983246;28;20179;-66
2022/01/31 09:19:16;;;;;;;28.10;10.75;;;;;;;-2.28;100.00;97309.13;4983256;28;20583;-67
2022/01/31 09:21:42;;;;;;;38.47;13.05;;;;;;;-2.30;100.00;97313.72;5001243;28;20049;-67
2022/01/31 09:24:08;;;;;;;35.28;11.82;;;;;;;-2.31;100.00;97319.94;4974647;28;20465;-64
2022/01/31 09:26:36;;;;;;;35.47;11.55;;;;;;;-2.44;100.00;97316.66;4990947;28;20049;-66
2022/01/31 09:29:02;;;;;;;59.72;21.33;;;;;;;-2.79;100.00;97306.34;4988763;28;20089;-65
2022/01/31 09:31:28;;;;;;;45.30;14.85;;;;;;;-2.59;100.00;97325.88;4995329;28;20136;-66
2022/01/31 09:33:54;;;;;;;47.42;15.90;;;;;;;-2.45;100.00;97317.63;5015319;28;20129;-66
2022/01/31 09:36:22;;;;;;;46.47;16.58;;;;;;;-2.53;100.00;97307.69;5006430;28;20482;-62
2022/01/31 09:38:50;;;;;;;50.75;14.32;;;;;;;-2.35;100.00;97318.53;5038568;28;20477;-68
2022/01/31 09:41:21;;;;;;;54.78;14.40;;;;;;;-2.24;100.00;97307.88;5025340;28;20045;-66
2022/01/31 09:48:44;;;;;;;59.70;19.95;;;;;;;-2.29;100.00;97318.03;5004720;28;20179;-69
2022/01/31 09:51:11;;;;;;;59.25;22.27;;;;;;;-2.60;100.00;97287.16;4987872;28;20137;-66
2022/01/31 09:53:45;;;;;;;49.90;15.63;;;;;;;-2.15;100.00;97339.84;4991204;28;20042;-66
2022/01/31 09:56:20;;;;;;;67.95;22.77;;;;;;;-2.33;100.00;97327.19;5002372;28;20045;-64
2022/01/31 09:58:46;;;;;;;54.92;15.75;;;;;;;-2.04;100.00;97319.44;5009658;28;20046;-64
2022/01/31 10:01:15;;;;;;;47.72;14.80;;;;;;;-2.08;100.00;97320.69;5008172;28;20049;-65
2022/01/31 10:03:50;;;;;;;46.67;14.60;;;;;;;-2.09;100.00;97328.72;5009121;28;20145;-64
2022/01/31 10:06:30;;;;;;;51.22;16.25;;;;;;;-2.04;100.00;97323.91;5015012;28;20045;-64
2022/01/31 10:09:17;;;;;;;34.80;13.20;;;;;;;-2.13;100.00;97316.72;4994627;28;20045;-64
2022/01/31 10:11:51;;;;;;;44.08;14.27;;;;;;;-2.12;100.00;97313.09;5001561;28;20081;-64
2022/01/31 10:17:30;;;;;;;56.83;19.30;;;;;;;-2.41;100.00;97313.78;5010119;28;20049;-64
2022/01/31 10:20:04;;;;;;;39.72;12.50;;;;;;;-2.28;100.00;97309.13;5043975;28;20061;-64
2022/01/31 10:22:32;;;;;;;40.45;12.63;;;;;;;-2.20;100.00;97314.59;5012298;28;20057;-64
2022/01/31 10:25:02;;;;;;;53.97;17.45;;;;;;;-2.22;100.00;97313.91;5027976;28;20037;-65
2022/01/31 10:27:33;;;;;;;43.78;15.32;;;;;;;-2.25;100.00;97302.72;5000788;28;20056;-64
2022/01/31 10:30:06;;;;;;;;;;;;;;;-2.08;100.00;97310.09;5013580;28;20137;-64
2022/01/31 10:32:36;;;;;;;47.60;13.88;;;;;;;-1.98;100.00;97299.53;5039071;28;19921;-65
2022/01/31 10:35:05;;;;;;;48.00;15.80;;;;;;;-1.80;100.00;97302.41;5008435;28;20053;-64
2022/01/31 10:37:32;;;;;;;54.05;16.42;;;;;;;-1.71;100.00;97305.13;5028619;28;20156;-64
2022/01/31 10:53:56;;;;;;;56.30;17.60;;;;;;;-1.93;100.00;97310.59;5011749;28;20066;-64
2022/01/31 10:56:22;;;;;;;48.13;14.98;;;;;;;-2.18;100.00;97266.84;5025801;28;20037;-64
2022/01/31 10:59:00;;;;;;;27.23;9.75;;;;;;;-1.93;100.00;97293.88;5046237;28;20033;-64
2022/01/31 11:01:27;;;;;;;53.13;16.45;;;;;;;-1.97;100.00;97286.19;5047930;28;20063;-64
2022/01/31 11:03:54;;;;;;;63.53;19.50;;;;;;;-1.87;100.00;97302.09;5012196;28;20041;-64
2022/01/31 11:06:21;;;;;;;53.70;15.98;;;;;;;-2.00;100.00;97285.63;5010768;28;20073;-64
2022/01/31 11:08:47;;;;;;;53.90;17.38;;;;;;;-2.03;100.00;97307.03;4993440;28;20532;-65
2022/01/31 11:11:14;;;;;;;50.70;17.30;;;;;;;-2.10;100.00;97295.31;5012135;28;20568;-64
2022/01/31 11:13:39;;;;;;;63.03;22.35;;;;;;;-2.13;100.00;97293.75;5010094;28;20052;-64
2022/01/31 11:16:06;;;;;;;51.00;18.67;;;;;;;-2.20;100.00;97290.78;5012714;28;20132;-64
2022/01/31 11:18:34;;;;;;;46.70;17.10;;;;;;;-1.98;100.00;97288.94;4995306;28;20125;-64
2022/01/31 11:21:03;;;;;;;40.03;12.40;;;;;;;-2.08;100.00;97273.03;5026705;28;20075;-65
2022/01/31 11:23:32;;;;;;;58.10;17.58;;;;;;;-1.96;100.00;97285.22;5042908;28;20056;-64
2022/01/31 11:26:00;;;;;;;47.75;15.45;;;;;;;-2.08;100.00;97251.88;5024822;28;20128;-64
2022/01/31 11:28:30;;;;;;;30.63;9.55;;;;;;;-2.02;100.00;97276.94;5027508;28;20090;-64
2022/01/31 11:30:56;;;;;;;44.13;15.93;;;;;;;-1.98;100.00;97273.06;5027757;28;20045;-64
2022/01/31 11:33:23;;;;;;;48.08;16.25;;;;;;;-1.92;100.00;97282.31;4994850;28;20053;-65
2022/01/31 11:35:50;;;;;;;32.60;10.98;;;;;;;-2.17;100.00;97241.22;4992625;28;20503;-64
2022/01/31 11:38:16;;;;;;;37.22;11.73;;;;;;;-2.00;100.00;97264.44;5043359;28;20579;-64
2022/01/31 11:40:43;;;;;;;41.80;15.57;;;;;;;-1.96;100.00;97273.78;5012169;28;20073;-64
2022/01/31 11:43:10;;;;;;;35.72;12.20;;;;;;;-1.92;100.00;97299.03;5011641;28;20041;-64